Time;durP1;ratioP1;P1;durP2;ratioP2;P2;SDS_P1;SDS_P2;PMS_P1;PMS_P2;Temp;Humidity;BMP_temperature;BMP_pressure;BME280_temperature;BME280_humidity;BME280_pressure;Samples;Min_cycle;Max_cycle;Signal;HPM_P1;HPM_P2
2021/11/09 00:00:08;;;;;;;1.73;0.57;;;;;;;;;;10099406;28;20031;-64
2021/11/09 00:05:10;;;;;;;10.63;1.10;;;;;;;;;;10099156;28;20039;-64
2021/11/09 00:10:08;;;;;;;8.32;1.40;;;;;;;;;;10103734;28;20043;-64
2021/11/09 00:15:07;;;;;;;2.20;0.93;;;;;;;;;;10111227;28;20024;-64
2021/11/09 00:20:06;;;;;;;1.88;0.60;;;;;;;;;;10114293;28;20122;-64
2021/11/09 00:25:05;;;;;;;3.50;0.75;;;;;;;;;;10111102;28;20043;-64
2021/11/09 00:30:02;;;;;;;;;;;;;;;;;;10109985;28;20032;-63
2021/11/09 00:35:00;;;;;;;3.83;0.80;;;;;;;;;;10095761;28;19914;-62
2021/11/09 00:39:58;;;;;;;1.47;0.50;;;;;;;;;;10112307;28;20335;-64
2021/11/09 00:44:55;;;;;;;0.43;0.43;;;;;;;;;;10114507;28;20481;-62
2021/11/09 00:49:53;;;;;;;5.63;1.83;;;;;;;;;;10116316;28;20492;-63
2021/11/09 00:54:50;;;;;;;1.77;1.23;;;;;;;;;;10108440;28;20063;-63
2021/11/09 00:59:48;;;;;;;2.43;0.77;;;;;;;;;;10114268;28;20043;-62
2021/11/09 01:04:45;;;;;;;1.13;0.70;;;;;;;;;;10103458;28;20055;-63
2021/11/09 01:09:43;;;;;;;1.93;1.23;;;;;;;;;;10116997;28;20104;-62
2021/11/09 01:14:40;;;;;;;1.33;1.03;;;;;;;;;;10117955;28;20028;-63
2021/11/09 01:19:38;;;;;;;2.77;0.60;;;;;;;;;;10127798;28;20396;-64
2021/11/09 01:24:36;;;;;;;1.45;0.90;;;;;;;;;;10114525;28;20239;-62
2021/11/09 01:29:33;;;;;;;4.70;0.60;;;;;;;;;;10093042;28;20054;-62
2021/11/09 01:34:31;;;;;;;6.17;1.20;;;;;;;;;;10115980;28;20324;-61
2021/11/09 01:39:28;;;;;;;3.90;0.93;;;;;;;;;;10101362;28;20043;-61
2021/11/09 01:44:25;;;;;;;2.37;0.90;;;;;;;;;;10114231;28;20066;-62
2021/11/09 01:49:23;;;;;;;1.27;0.57;;;;;;;;;;10103872;28;20556;-62
2021/11/09 01:54:20;;;;;;;1.30;1.13;;;;;;;;;;10118212;28;20403;-62
2021/11/09 01:59:18;;;;;;;1.87;0.23;;;;;;;;;;10111673;28;20401;-63
2021/11/09 02:04:15;;;;;;;0.63;0.57;;;;;;;;;;10110138;28;20449;-62
2021/11/09 02:09:14;;;;;;;4.57;1.30;;;;;;;;;;10113512;28;20047;-61
2021/11/09 02:14:12;;;;;;;1.05;0.90;;;;;;;;;;10116115;28;20054;-61
2021/11/09 02:19:09;;;;;;;2.53;1.77;;;;;;;;;;10107493;28;20043;-63
2021/11/09 02:24:07;;;;;;;2.20;0.70;;;;;;;;;;10116831;28;20047;-63
2021/11/09 02:29:04;;;;;;;5.50;1.10;;;;;;;;;;10106467;28;20497;-62
2021/11/09 02:34:02;;;;;;;0.53;0.50;;;;;;;;;;10120301;28;20039;-63
2021/11/09 02:38:59;;;;;;;1.13;0.60;;;;;;;;;;10112792;28;20039;-63
2021/11/09 02:43:59;;;;;;;2.47;1.80;;;;;;;;;;10112481;28;20031;-62
2021/11/09 02:54:05;;;;;;;4.13;1.98;;;;;;;;;;10115445;28;20557;-63
2021/11/09 02:59:21;;;;;;;3.92;1.27;;;;;;;;;;10111495;28;20455;-61
2021/11/09 03:09:52;;;;;;;2.70;1.77;;;;;;;;;;10128625;28;20039;-63
2021/11/09 03:14:50;;;;;;;4.75;2.17;;;;;;;;;;10126403;28;20047;-62
2021/11/09 03:19:55;;;;;;;1.23;1.07;;;;;;;;;;10119149;28;20505;-62
2021/11/09 03:40:50;;;;;;;3.85;1.25;;;;;;;;;;10124679;28;20036;-62
2021/11/09 03:45:50;;;;;;;1.05;0.93;;;;;;;;;;10112613;28;20131;-61
2021/11/09 03:50:49;;;;;;;1.33;1.08;;;;;;;;;;10128965;28;20044;-59
2021/11/09 04:05:47;;;;;;;2.50;1.63;;;;;;;;;;10141506;28;20051;-60
2021/11/09 04:10:57;;;;;;;3.67;1.33;;;;;;;;;;10133681;23;20503;-61
2021/11/09 04:21:08;;;;;;;2.17;1.93;;;;;;;;;;10239259;28;20105;-61
2021/11/09 05:12:13;;;;;;;4.80;3.47;;;;;;;;;;10237591;28;20404;-63
2021/11/09 05:17:10;;;;;;;7.35;3.42;;;;;;;;;;10236813;28;20054;-63
2021/11/09 05:22:07;;;;;;;8.73;3.87;;;;;;;;;;10230175;28;20584;-62
2021/11/09 05:27:05;;;;;;;6.73;3.67;;;;;;;;;;10245422;28;20041;-62
2021/11/09 05:32:03;;;;;;;8.90;4.30;;;;;;;;;;10235266;28;20091;-65
2021/11/09 05:37:01;;;;;;;7.03;4.33;;;;;;;;;;10203327;28;20133;-63
2021/11/09 05:41:59;;;;;;;;;;;;;;;;;;10204216;28;20044;-62
2021/11/09 05:46:57;;;;;;;9.93;4.22;;;;;;;;;;10216559;28;19922;-61
2021/11/09 05:51:54;;;;;;;11.97;4.40;;;;;;;;;;10199042;28;20045;-62
2021/11/09 05:56:52;;;;;;;9.40;4.17;;;;;;;;;;10211888;28;20068;-60
2021/11/09 06:01:49;;;;;;;15.10;5.67;;;;;;;;;;10195292;28;20046;-61
2021/11/09 06:06:47;;;;;;;12.20;5.57;;;;;;;;;;10225572;28;20078;-61
2021/11/09 06:11:44;;;;;;;12.63;5.93;;;;;;;;;;10225081;28;20394;-62
2021/11/09 06:16:41;;;;;;;16.77;6.20;;;;;;;;;;10220288;28;20034;-63
2021/11/09 06:21:39;;;;;;;18.97;6.60;;;;;;;;;;10233547;28;20038;-62
2021/11/09 06:26:36;;;;;;;15.90;5.87;;;;;;;;;;10187970;28;20500;-64
2021/11/09 06:31:34;;;;;;;12.57;6.50;;;;;;;;;;10222971;28;20033;-62
2021/11/09 06:36:32;;;;;;;16.83;6.80;;;;;;;;;;10219876;28;20039;-64
2021/11/09 06:41:31;;;;;;;18.85;6.43;;;;;;;;;;10201064;28;20031;-63
2021/11/09 06:46:28;;;;;;;11.73;5.90;;;;;;;;;;10185109;28;20461;-63
2021/11/09 06:51:26;;;;;;;20.27;7.80;;;;;;;;;;10205567;28;20504;-64
2021/11/09 06:56:23;;;;;;;20.10;7.87;;;;;;;;;;10197598;28;20042;-64
2021/11/09 07:01:21;;;;;;;18.73;7.87;;;;;;;;;;10204474;28;20034;-61
2021/11/09 07:06:19;;;;;;;18.13;6.90;;;;;;;;;;10202520;28;21142;-63
2021/11/09 07:11:16;;;;;;;17.10;6.57;;;;;;;;;;10234529;28;20856;-61
2021/11/09 07:16:15;;;;;;;17.57;6.70;;;;;;;;;;10208292;28;20037;-62
2021/11/09 07:21:13;;;;;;;18.55;5.85;;;;;;;;;;10228675;28;20042;-63
2021/11/09 07:26:11;;;;;;;16.53;6.83;;;;;;;;;;10193448;28;20085;-61
2021/11/09 07:31:09;;;;;;;13.70;6.47;;;;;;;;;;10205610;28;20049;-66
2021/11/09 07:36:07;;;;;;;;;;;;;;;;;;10184349;28;20133;-61
2021/11/09 07:41:04;;;;;;;20.50;6.90;;;;;;;;;;10208965;28;20475;-62
2021/11/09 07:46:02;;;;;;;26.10;8.33;;;;;;;;;;10202070;28;20034;-61
2021/11/09 07:50:59;;;;;;;20.33;6.67;;;;;;;;;;10140561;23;20050;-64
2021/11/09 08:01:07;;;;;;;17.35;7.65;;;;;;;;;;10091468;28;21134;-64
2021/11/09 08:11:17;;;;;;;12.43;6.18;;;;;;;;;;10053247;28;20505;-64
2021/11/09 08:16:16;;;;;;;13.70;6.50;;;;;;;;;;10056917;28;20697;-64
2021/11/09 08:21:14;;;;;;;13.02;5.38;;;;;;;;;;10163845;23;20046;-65
2021/11/09 08:26:12;;;;;;;14.50;5.83;;;;;;;;;;10277986;28;20034;-63
2021/11/09 08:31:11;;;;;;;15.30;6.80;;;;;;;;;;10281335;28;20042;-65
2021/11/09 08:36:13;;;;;;;19.67;6.80;;;;;;;;;;10298140;28;20033;-63
2021/11/09 08:41:12;;;;;;;15.55;5.88;;;;;;;;;;10289967;28;20064;-65
2021/11/09 08:46:17;;;;;;;15.73;6.22;;;;;;;;;;10275313;28;20029;-67
2021/11/09 08:51:16;;;;;;;18.92;7.47;;;;;;;;;;10274370;28;20069;-63
2021/11/09 09:06:35;;;;;;;18.17;6.15;;;;;;;;;;10297030;28;20029;-65
2021/11/09 09:11:33;;;;;;;15.77;6.87;;;;;;;;;;10285651;28;20041;-64
2021/11/09 09:16:33;;;;;;;11.73;5.30;;;;;;;;;;10293401;28;20439;-63
2021/11/09 09:21:38;;;;;;;18.00;7.43;;;;;;;;;;10291973;28;20080;-62
2021/11/09 09:26:45;;;;;;;18.77;7.78;;;;;;;;;;10291543;28;20032;-65
2021/11/09 09:52:57;;;;;;;9.30;4.70;;;;;;;;;;10288416;28;20538;-63
2021/11/09 09:57:55;;;;;;;17.58;6.57;;;;;;;;;;10284372;28;20042;-61
2021/11/09 10:02:54;;;;;;;16.70;6.87;;;;;;;;;;10281678;28;20029;-64
2021/11/09 10:07:53;;;;;;;29.25;7.53;;;;;;;;;;10272940;28;20033;-63
2021/11/09 10:13:09;;;;;;;21.77;5.93;;;;;;;;;;10290361;28;20030;-62
2021/11/09 10:18:10;;;;;;;20.15;6.65;;;;;;;;;;10276146;28;20506;-61
2021/11/09 10:23:10;;;;;;;23.30;5.68;;;;;;;;;;10279711;28;20025;-63
2021/11/09 10:28:11;;;;;;;15.95;4.72;;;;;;;;;;10288350;28;20029;-60
2021/11/09 10:33:12;;;;;;;20.08;5.88;;;;;;;;;;10277411;28;20045;-62
2021/11/09 10:38:10;;;;;;;18.08;4.90;;;;;;;;;;10290387;28;20540;-63
2021/11/09 10:43:10;;;;;;;13.20;5.35;;;;;;;;;;10276130;28;20041;-63
2021/11/09 10:48:09;;;;;;;18.83;6.35;;;;;;;;;;10278833;28;20032;-62
2021/11/09 10:53:09;;;;;;;13.93;4.43;;;;;;;;;;10278099;28;20506;-63
2021/11/09 11:03:58;;;;;;;16.20;5.70;;;;;;;;;;10292053;28;20111;-63
2021/11/09 11:08:36;;;;;;;14.90;4.88;;;;;;;;;;10290222;28;20060;-62
2021/11/09 11:13:33;;;;;;;12.40;6.00;;;;;;;;;;10293719;28;20041;-64
2021/11/09 11:18:32;;;;;;;22.10;5.90;;;;;;;;;;10299801;28;20030;-64
2021/11/09 11:23:30;;;;;;;14.43;5.63;;;;;;;;;;10288895;28;20033;-63
2021/11/09 11:28:28;;;;;;;10.75;4.38;;;;;;;;;;10298141;28;20124;-63
2021/11/09 11:33:26;;;;;;;12.50;4.85;;;;;;;;;;10287796;28;20101;-64
2021/11/09 11:38:23;;;;;;;12.93;4.72;;;;;;;;;;10299501;28;20090;-64
2021/11/09 11:43:40;;;;;;;11.15;3.47;;;;;;;;;;10291069;28;20491;-63
2021/11/09 11:48:56;;;;;;;13.95;4.65;;;;;;;;;;10288848;28;20065;-63
2021/11/09 11:53:56;;;;;;;13.45;4.18;;;;;;;;;;10289850;28;20292;-64
2021/11/09 11:58:53;;;;;;;9.68;3.75;;;;;;;;;;10284096;28;20033;-62
2021/11/09 12:03:51;;;;;;;9.03;3.30;;;;;;;;;;10277065;28;20479;-66
2021/11/09 12:08:51;;;;;;;11.25;4.18;;;;;;;;;;10282458;28;20108;-67
2021/11/09 12:13:53;;;;;;;11.95;3.60;;;;;;;;;;10269835;28;20593;-65
2021/11/09 12:18:50;;;;;;;11.57;4.45;;;;;;;;;;10302527;28;20029;-64
2021/11/09 12:24:07;;;;;;;17.47;4.77;;;;;;;;;;10281925;28;20037;-64
2021/11/09 12:29:24;;;;;;;11.75;3.53;;;;;;;;;;10278980;28;20034;-64
2021/11/09 12:34:47;;;;;;;8.63;3.47;;;;;;;;;;10288747;28;20126;-63
2021/11/09 12:39:44;;;;;;;11.93;4.00;;;;;;;;;;10298460;28;20120;-64
2021/11/09 12:44:42;;;;;;;15.73;4.40;;;;;;;;;;10263599;28;20112;-63
2021/11/09 12:49:43;;;;;;;12.30;4.35;;;;;;;;;;10286145;28;20061;-63
2021/11/09 12:54:41;;;;;;;8.23;3.95;;;;;;;;;;10293081;28;20037;-64
2021/11/09 12:59:49;;;;;;;12.70;4.43;;;;;;;;;;10272121;28;20040;-63
2021/11/09 13:04:50;;;;;;;6.60;3.10;;;;;;;;;;10284018;28;20132;-64
2021/11/09 13:09:58;;;;;;;11.25;3.67;;;;;;;;;;10284353;28;20084;-63
2021/11/09 13:15:01;;;;;;;12.80;3.80;;;;;;;;;;10299450;28;20423;-64
2021/11/09 13:20:55;;;;;;;13.93;4.72;;;;;;;;;;10278502;28;20042;-64
2021/11/09 13:25:36;;;;;;;10.75;3.10;;;;;;;;;;10285719;28;20041;-61
2021/11/09 13:30:33;;;;;;;9.93;2.85;;;;;;;;;;10271967;28;20046;-63
2021/11/09 13:35:34;;;;;;;10.00;2.67;;;;;;;;;;10294110;28;20572;-62
2021/11/09 13:40:32;;;;;;;12.88;3.25;;;;;;;;;;10289344;28;20037;-62
2021/11/09 13:45:30;;;;;;;;;;;;;;;;;;10293860;28;20594;-64
2021/11/09 13:50:28;;;;;;;10.60;2.60;;;;;;;;;;10293750;28;19925;-64
2021/11/09 13:55:25;;;;;;;7.57;2.80;;;;;;;;;;10290733;28;20056;-63
2021/11/09 14:00:26;;;;;;;12.10;4.27;;;;;;;;;;10291277;28;20045;-64
2021/11/09 14:11:22;;;;;;;7.60;3.75;;;;;;;;;;10278803;28;20046;-66
2021/11/09 14:21:14;;;;;;;9.65;3.40;;;;;;;;;;10288919;28;20049;-64
2021/11/09 14:26:17;;;;;;;14.87;3.27;;;;;;;;;;10279408;28;20558;-63
2021/11/09 14:31:17;;;;;;;6.40;2.83;;;;;;;;;;10291823;28;20041;-64
2021/11/09 14:36:25;;;;;;;15.00;3.60;;;;;;;;;;10298297;28;20056;-63
2021/11/09 14:41:25;;;;;;;9.13;4.30;;;;;;;;;;10290693;28;20120;-61
2021/11/09 14:46:27;;;;;;;14.70;3.45;;;;;;;;;;10290303;28;20047;-62
2021/11/09 14:51:31;;;;;;;7.57;3.22;;;;;;;;;;10282617;28;21088;-65
2021/11/09 14:56:31;;;;;;;5.85;3.50;;;;;;;;;;10293522;28;20041;-64
2021/11/09 15:32:28;;;;;;;12.07;3.90;;;;;;;;;;10291147;28;20095;-61
2021/11/09 15:38:11;;;;;;;13.57;4.05;;;;;;;;;;10286207;28;20391;-59
2021/11/09 15:42:43;;;;;;;10.27;3.97;;;;;;;;;;10265514;28;20039;-60
2021/11/09 15:47:41;;;;;;;7.27;3.67;;;;;;;;;;10270863;28;20030;-61
2021/11/09 15:52:39;;;;;;;15.27;4.10;;;;;;;;;;10284742;28;20026;-62
2021/11/09 15:57:37;;;;;;;9.32;2.67;;;;;;;;;;10282311;28;20062;-61
2021/11/09 16:02:35;;;;;;;11.55;3.40;;;;;;;;;;10275175;28;20084;-65
2021/11/09 16:07:34;;;;;;;;;;;;;;;;;;10299072;28;20029;-63
2021/11/09 16:12:31;;;;;;;9.75;4.15;;;;;;;;;;10280885;28;19956;-62
2021/11/09 16:17:29;;;;;;;13.17;3.73;;;;;;;;;;10277527;28;20045;-62
2021/11/09 16:22:33;;;;;;;16.23;5.10;;;;;;;;;;10284838;28;20040;-63
2021/11/09 16:27:35;;;;;;;23.23;5.18;;;;;;;;;;10257723;28;20041;-62
2021/11/09 16:32:35;;;;;;;23.03;6.93;;;;;;;;;;10280241;28;20037;-62
2021/11/09 16:37:33;;;;;;;15.23;5.50;;;;;;;;;;10275594;28;20103;-64
2021/11/09 16:42:44;;;;;;;19.13;7.75;;;;;;;;;;10279862;28;20124;-62
2021/11/09 16:47:43;;;;;;;19.92;8.43;;;;;;;;;;10279473;28;20059;-62
2021/11/09 16:52:42;;;;;;;16.63;6.60;;;;;;;;;;10275769;28;20041;-62
2021/11/09 16:57:56;;;;;;;15.43;6.35;;;;;;;;;;10274532;28;20065;-60
2021/11/09 18:21:16;;;;;;;16.98;4.38;;;;;;;;;;10288431;28;20473;-63
2021/11/09 18:26:13;;;;;;;15.63;4.40;;;;;;;;;;10286158;28;20043;-64
2021/11/09 18:31:12;;;;;;;8.97;4.70;;;;;;;;;;10279855;28;20079;-64
2021/11/09 18:36:11;;;;;;;12.20;3.53;;;;;;;;;;10286641;28;20116;-65
2021/11/09 18:41:09;;;;;;;13.35;4.30;;;;;;;;;;10263847;28;20087;-63
2021/11/09 18:46:11;;;;;;;12.70;3.95;;;;;;;;;;10279270;28;20536;-64
2021/11/09 18:51:09;;;;;;;8.02;4.45;;;;;;;;;;10281745;28;20520;-64
2021/11/09 18:56:08;;;;;;;11.93;3.80;;;;;;;;;;10284281;28;20099;-64
2021/11/09 19:01:06;;;;;;;6.05;3.08;;;;;;;;;;10284865;28;20129;-63
2021/11/09 19:06:04;;;;;;;7.77;3.07;;;;;;;;;;10272915;28;20491;-64
2021/11/09 19:11:01;;;;;;;8.53;3.23;;;;;;;;;;10279405;28;20053;-64
2021/11/09 19:16:00;;;;;;;16.07;5.27;;;;;;;;;;10277133;28;20269;-63
2021/11/09 19:20:58;;;;;;;19.48;4.75;;;;;;;;;;10283587;28;20076;-63
2021/11/09 19:25:56;;;;;;;9.35;4.30;;;;;;;;;;10278809;28;20387;-63
2021/11/09 19:30:54;;;;;;;17.88;5.40;;;;;;;;;;10277942;28;20069;-62
2021/11/09 19:35:52;;;;;;;20.38;5.85;;;;;;;;;;10280937;28;20038;-65
2021/11/09 19:40:50;;;;;;;14.30;5.07;;;;;;;;;;10287101;28;20037;-63
2021/11/09 19:45:49;;;;;;;10.13;4.33;;;;;;;;;;10268340;28;20319;-63
2021/11/09 19:50:52;;;;;;;11.88;3.72;;;;;;;;;;10278566;28;20588;-65
2021/11/09 19:55:50;;;;;;;9.30;2.90;;;;;;;;;;10284678;28;20696;-65
2021/11/09 20:00:49;;;;;;;8.63;3.90;;;;;;;;;;10284438;28;20033;-63
2021/11/09 20:05:55;;;;;;;10.27;3.65;;;;;;;;;;10283246;28;20045;-63
2021/11/09 20:10:54;;;;;;;13.02;3.65;;;;;;;;;;10285009;28;20092;-63
2021/11/09 20:15:57;;;;;;;9.45;3.22;;;;;;;;;;10278575;28;20045;-64
2021/11/09 20:20:55;;;;;;;9.43;3.17;;;;;;;;;;10265200;28;20099;-64
2021/11/09 20:25:53;;;;;;;9.95;3.33;;;;;;;;;;10280322;28;20739;-63
2021/11/09 20:36:05;;;;;;;10.75;2.97;;;;;;;;;;10931704;22;21853;-63
2021/11/09 20:41:02;;;;;;;;;;;;;;;;;;10120866;28;20090;-64
2021/11/09 20:46:00;;;;;;;8.25;2.28;;;;;;;;;;10127463;28;21842;-64
2021/11/09 20:50:58;;;;;;;7.18;1.98;;;;;;;;;;10125579;28;20041;-64
2021/11/09 20:55:55;;;;;;;12.70;5.63;;;;;;;;;;10173969;28;20411;-64
2021/11/09 21:00:53;;;;;;;7.90;3.63;;;;;;;;;;10179170;28;20046;-63
2021/11/09 21:05:50;;;;;;;5.47;2.57;;;;;;;;;;10193132;28;20503;-63
2021/11/09 21:10:49;;;;;;;9.67;3.90;;;;;;;;;;10180553;28;20105;-63
2021/11/09 21:21:08;;;;;;;9.93;3.05;;;;;;;;;;10183621;28;19928;-63
2021/11/09 21:26:06;;;;;;;7.70;1.98;;;;;;;;;;10182517;28;20042;-63
2021/11/09 21:36:01;;;;;;;8.43;3.33;;;;;;;;;;10184578;28;20058;-63
2021/11/09 21:40:58;;;;;;;9.77;4.27;;;;;;;;;;10194382;28;20121;-64
2021/11/09 21:45:56;;;;;;;9.37;3.33;;;;;;;;;;10191300;28;20454;-63
2021/11/09 21:50:53;;;;;;;12.87;3.27;;;;;;;;;;10185965;28;20042;-64
2021/11/09 21:55:51;;;;;;;10.27;4.40;;;;;;;;;;10186253;28;20487;-63
2021/11/09 22:00:50;;;;;;;13.00;4.37;;;;;;;;;;10185749;28;20066;-64
2021/11/09 22:05:52;;;;;;;7.93;3.35;;;;;;;;;;10198006;28;20037;-64
2021/11/09 22:10:50;;;;;;;8.32;2.88;;;;;;;;;;10191778;28;20049;-65
2021/11/09 22:15:47;;;;;;;7.10;2.93;;;;;;;;;;10169440;28;20051;-65
2021/11/09 22:20:45;;;;;;;11.77;4.22;;;;;;;;;;10190281;28;20491;-65
2021/11/09 22:25:43;;;;;;;7.40;2.92;;;;;;;;;;10183901;28;20069;-63
2021/11/09 22:30:41;;;;;;;17.88;5.45;;;;;;;;;;10186812;28;20125;-63
2021/11/09 22:35:39;;;;;;;2.13;1.97;;;;;;;;;;10190815;28;20131;-63
2021/11/09 22:40:36;;;;;;;15.63;5.20;;;;;;;;;;10185141;28;20121;-64
2021/11/09 22:45:34;;;;;;;10.00;4.40;;;;;;;;;;10212346;28;20506;-63
2021/11/09 22:50:31;;;;;;;11.03;3.13;;;;;;;;;;10181334;28;20069;-63
2021/11/09 22:55:28;;;;;;;12.57;4.33;;;;;;;;;;10207531;28;20073;-64
2021/11/09 23:00:35;;;;;;;16.63;5.43;;;;;;;;;;10212401;28;20038;-64
2021/11/09 23:05:32;;;;;;;10.02;3.25;;;;;;;;;;10225463;28;20061;-65
2021/11/09 23:10:30;;;;;;;18.83;3.83;;;;;;;;;;10206107;28;20046;-65
2021/11/09 23:15:27;;;;;;;16.90;2.53;;;;;;;;;;10204030;28;20170;-64
2021/11/09 23:20:25;;;;;;;6.23;2.93;;;;;;;;;;10197380;28;20327;-64
2021/11/09 23:25:23;;;;;;;8.05;3.38;;;;;;;;;;10208076;28;20115;-65
2021/11/09 23:30:21;;;;;;;6.40;3.00;;;;;;;;;;10200349;28;20050;-64
2021/11/09 23:35:19;;;;;;;6.28;2.58;;;;;;;;;;10205415;28;20510;-64
2021/11/09 23:40:21;;;;;;;20.23;6.20;;;;;;;;;;10204864;28;20121;-65
2021/11/09 23:45:19;;;;;;;5.75;3.25;;;;;;;;;;10203994;28;20045;-64
2021/11/09 23:50:16;;;;;;;7.85;4.47;;;;;;;;;;10207013;28;20042;-65
2021/11/09 23:55:14;;;;;;;14.17;3.80;;;;;;;;;;10201207;28;20043;-65
